createdAt,value
2019-02-16T00:00:48.301Z,11.93
2019-02-16T00:03:18.250Z,11.90
2019-02-16T00:05:47.652Z,12.03
2019-02-16T00:08:17.018Z,12.37
2019-02-16T00:10:46.378Z,11.97
2019-02-16T00:13:15.722Z,12.73
2019-02-16T00:15:45.059Z,11.97
2019-02-16T00:18:14.383Z,12.70
2019-02-16T00:20:43.770Z,12.53
2019-02-16T00:23:13.108Z,11.70
2019-02-16T00:25:42.448Z,12.50
2019-02-16T00:28:11.823Z,12.03
2019-02-16T00:30:41.142Z,13.83
2019-02-16T00:33:10.566Z,15.30
2019-02-16T00:35:40.104Z,13.33
2019-02-16T00:38:09.477Z,13.07
2019-02-16T00:40:38.855Z,12.60
2019-02-16T00:43:08.188Z,11.67
2019-02-16T00:45:37.573Z,11.77
2019-02-16T00:48:06.936Z,12.13
2019-02-16T00:50:36.286Z,11.43
2019-02-16T00:53:05.653Z,11.27
2019-02-16T00:55:35.088Z,11.37
2019-02-16T00:58:04.441Z,10.50
2019-02-16T01:00:33.784Z,11.17
2019-02-16T01:03:03.109Z,12.07
2019-02-16T01:05:32.469Z,15.93
2019-02-16T01:08:01.782Z,16.37
2019-02-16T01:10:31.144Z,16.97
2019-02-16T01:13:00.471Z,14.87
2019-02-16T01:15:29.890Z,13.13
2019-02-16T01:17:59.241Z,14.13
2019-02-16T01:20:28.583Z,14.00
2019-02-16T01:22:57.935Z,16.13
2019-02-16T01:25:27.269Z,15.00
2019-02-16T01:27:56.588Z,16.17
2019-02-16T01:30:25.922Z,15.10
2019-02-16T01:32:55.241Z,14.47
2019-02-16T01:35:24.610Z,12.33
2019-02-16T01:37:53.915Z,13.97
2019-02-16T01:40:23.262Z,13.63
2019-02-16T01:42:52.592Z,14.13
2019-02-16T01:45:21.976Z,15.47
2019-02-16T01:47:51.357Z,13.33
2019-02-16T01:50:20.727Z,13.80
2019-02-16T01:52:50.070Z,13.30
2019-02-16T01:55:19.398Z,12.33
2019-02-16T01:57:48.744Z,10.93
2019-02-16T02:00:18.094Z,11.13
2019-02-16T02:02:47.413Z,11.27
2019-02-16T02:05:16.844Z,10.20
2019-02-16T02:07:46.216Z,10.00
2019-02-16T02:10:15.660Z,9.17
2019-02-16T02:12:45.030Z,9.43
2019-02-16T02:15:14.472Z,8.23
2019-02-16T02:17:43.813Z,9.07
2019-02-16T02:20:13.259Z,10.90
2019-02-16T02:22:42.617Z,11.40
2019-02-16T02:25:12.199Z,12.27
2019-02-16T02:27:41.543Z,11.93
2019-02-16T02:30:11.282Z,12.43
2019-02-16T02:32:40.662Z,12.17
2019-02-16T02:35:10.177Z,11.80
2019-02-16T02:37:39.545Z,9.17
2019-02-16T02:40:09.411Z,8.90
2019-02-16T02:42:38.834Z,8.93
2019-02-16T02:45:09.426Z,7.83
2019-02-16T02:47:38.772Z,8.13
2019-02-16T02:50:08.278Z,8.30
2019-02-16T02:52:37.650Z,7.47
2019-02-16T02:55:07.589Z,8.10
2019-02-16T02:57:36.997Z,7.80
2019-02-16T03:00:07.475Z,7.97
2019-02-16T03:02:36.764Z,7.83
2019-02-16T03:05:07.075Z,7.47
2019-02-16T03:07:36.528Z,7.57
2019-02-16T03:10:06.066Z,7.40
2019-02-16T03:12:35.412Z,8.17
2019-02-16T03:15:04.886Z,8.20
2019-02-16T03:17:34.199Z,8.10
2019-02-16T03:20:03.654Z,7.63
2019-02-16T03:23:08.781Z,7.77
2019-02-16T03:25:38.131Z,6.13
2019-02-16T03:28:42.946Z,7.43
2019-02-16T03:31:45.591Z,7.20
2019-02-16T03:34:21.595Z,6.60
2019-02-16T03:37:25.231Z,6.37
2019-02-16T03:39:54.588Z,6.13
2019-02-16T03:42:24.118Z,6.80
2019-02-16T03:44:53.426Z,7.13
2019-02-16T03:47:22.721Z,7.50
2019-02-16T03:49:52.068Z,7.87
2019-02-16T03:52:21.418Z,9.47
2019-02-16T03:54:50.757Z,9.20
2019-02-16T03:57:20.135Z,7.67
2019-02-16T03:59:49.690Z,7.70
2019-02-16T04:02:19.019Z,7.30
2019-02-16T04:04:48.347Z,6.87
2019-02-16T04:07:17.705Z,7.07
2019-02-16T04:09:47.018Z,7.47
2019-02-16T04:12:16.331Z,7.83
2019-02-16T04:14:45.728Z,7.57
2019-02-16T04:17:15.084Z,7.17
2019-02-16T04:19:44.397Z,6.93
2019-02-16T04:22:23.882Z,7.17
2019-02-16T04:24:44.872Z,7.30
2019-02-16T04:27:14.273Z,7.60
2019-02-16T04:29:43.644Z,7.07
2019-02-16T04:32:12.955Z,7.13
2019-02-16T04:34:42.309Z,7.47
2019-02-16T04:37:11.626Z,7.87
2019-02-16T04:39:40.927Z,7.63
2019-02-16T04:42:10.252Z,7.83
2019-02-16T04:44:39.741Z,8.53
2019-02-16T04:47:09.081Z,8.63
2019-02-16T04:49:38.425Z,8.20
2019-02-16T04:52:07.468Z,9.07
2019-02-16T04:54:36.944Z,8.57
2019-02-16T04:57:06.279Z,8.70
2019-02-16T04:59:35.652Z,8.40
2019-02-16T05:02:04.987Z,9.57
2019-02-16T05:04:34.354Z,9.70
2019-02-16T05:07:03.671Z,11.10
2019-02-16T05:09:32.991Z,10.30
2019-02-16T05:12:02.366Z,10.37
2019-02-16T05:14:31.698Z,9.73
2019-02-16T05:17:01.065Z,9.40
2019-02-16T05:19:30.400Z,9.90
2019-02-16T05:21:59.724Z,10.57
2019-02-16T05:24:29.078Z,11.23
2019-02-16T05:26:58.405Z,11.17
2019-02-16T05:29:27.786Z,11.27
2019-02-16T05:31:57.110Z,11.37
2019-02-16T05:34:26.450Z,12.73
2019-02-16T05:36:55.830Z,11.67
2019-02-16T05:39:25.178Z,12.80
2019-02-16T05:41:55.208Z,17.47
2019-02-16T05:44:25.482Z,18.30
2019-02-16T05:46:56.174Z,17.10
2019-02-16T05:49:26.000Z,18.00
2019-02-16T05:51:55.719Z,16.60
2019-02-16T05:54:25.217Z,17.30
2019-02-16T05:56:54.996Z,16.13
2019-02-16T05:59:24.484Z,18.20
2019-02-16T06:01:55.516Z,21.10
2019-02-16T06:04:25.341Z,16.90
2019-02-16T06:06:54.710Z,13.23
2019-02-16T06:09:24.122Z,14.97
2019-02-16T06:11:53.497Z,17.33
2019-02-16T06:14:22.888Z,16.33
2019-02-16T06:16:52.209Z,15.50
2019-02-16T06:19:21.874Z,17.30
2019-02-16T06:21:51.248Z,17.33
2019-02-16T06:24:20.565Z,13.20
2019-02-16T06:26:49.940Z,11.77
2019-02-16T06:29:19.258Z,14.00
2019-02-16T06:31:48.569Z,13.37
2019-02-16T06:34:17.906Z,12.73
2019-02-16T06:36:47.347Z,14.17
2019-02-16T06:39:16.691Z,15.63
2019-02-16T06:41:46.097Z,19.40
2019-02-16T06:44:15.539Z,23.00
2019-02-16T06:46:44.956Z,23.90
2019-02-16T06:49:14.316Z,24.80
2019-02-16T06:51:43.623Z,26.40
2019-02-16T06:54:13.065Z,28.03
2019-02-16T06:57:01.688Z,27.13
2019-02-16T06:59:30.997Z,26.47
2019-02-16T07:02:00.398Z,25.13
2019-02-16T07:04:29.725Z,20.47
2019-02-16T07:06:59.087Z,21.70
2019-02-16T07:09:28.542Z,19.20
2019-02-16T07:11:57.910Z,21.43
2019-02-16T07:14:27.267Z,19.83
2019-02-16T07:17:12.249Z,20.17
2019-02-16T07:19:46.572Z,16.73
2019-02-16T07:22:15.954Z,14.20
2019-02-16T07:24:45.474Z,13.63
2019-02-16T07:27:14.882Z,13.40
2019-02-16T07:29:44.274Z,14.27
2019-02-16T07:32:13.681Z,15.83
2019-02-16T07:34:43.118Z,16.50
2019-02-16T07:37:12.496Z,15.93
2019-02-16T07:39:41.898Z,16.93
2019-02-16T07:42:11.269Z,15.13
2019-02-16T07:44:51.952Z,14.40
2019-02-16T07:47:58.635Z,14.27
2019-02-16T07:51:05.062Z,14.20
2019-02-16T07:53:43.054Z,14.80
2019-02-16T07:56:39.924Z,14.87
2019-02-16T07:59:34.261Z,15.23
2019-02-16T08:02:09.118Z,14.30
2019-02-16T08:04:57.436Z,13.80
2019-02-16T08:07:48.270Z,12.40
2019-02-16T08:10:45.452Z,11.20
2019-02-16T08:13:39.603Z,12.33
2019-02-16T08:16:34.183Z,11.67
2019-02-16T08:19:34.516Z,10.07
2019-02-16T08:22:37.871Z,13.13
2019-02-16T08:25:27.595Z,12.67
2019-02-16T08:28:14.646Z,11.00
2019-02-16T08:31:01.639Z,11.60
2019-02-16T08:33:48.704Z,10.93
2019-02-16T08:36:32.722Z,11.00
2019-02-16T08:39:16.630Z,10.57
2019-02-16T08:42:07.784Z,10.27
2019-02-16T08:44:54.825Z,10.03
2019-02-16T08:47:52.268Z,9.73
2019-02-16T08:50:40.582Z,10.30
2019-02-16T08:53:28.868Z,10.33
2019-02-16T08:56:15.761Z,9.77
2019-02-16T08:59:13.211Z,9.87
2019-02-16T09:01:55.985Z,10.33
2019-02-16T09:04:49.476Z,11.77
2019-02-16T09:07:33.428Z,10.13
2019-02-16T09:10:18.772Z,9.67
2019-02-16T09:13:09.856Z,10.47
2019-02-16T09:15:57.718Z,9.90
2019-02-16T09:18:46.019Z,10.47
2019-02-16T09:21:34.265Z,10.70
2019-02-16T09:24:28.641Z,9.83
2019-02-16T09:27:28.245Z,11.43
2019-02-16T09:30:22.563Z,11.40
2019-02-16T09:33:13.860Z,10.17
2019-02-16T09:35:51.768Z,12.97
2019-02-16T09:38:42.860Z,10.20
2019-02-16T09:41:31.184Z,14.07
2019-02-16T09:44:22.277Z,12.63
2019-02-16T09:47:19.462Z,11.87
2019-02-16T09:50:06.909Z,11.27
2019-02-16T09:52:57.210Z,10.50
2019-02-16T09:55:45.650Z,10.97
2019-02-16T09:58:32.782Z,9.27
2019-02-16T10:01:21.104Z,8.90
2019-02-16T10:04:04.450Z,8.53
2019-02-16T10:06:43.719Z,8.63
2019-02-16T10:09:38.249Z,9.20
2019-02-16T10:12:41.599Z,11.07
2019-02-16T10:15:33.319Z,10.77
2019-02-16T10:18:24.688Z,8.80
2019-02-16T10:21:09.441Z,9.00
2019-02-16T10:24:07.136Z,9.73
2019-02-16T10:26:58.428Z,10.67
2019-02-16T10:29:56.012Z,8.03
2019-02-16T10:32:38.541Z,9.50
2019-02-16T10:35:42.363Z,8.43
2019-02-16T10:38:25.448Z,9.60
2019-02-16T10:41:12.809Z,8.97
2019-02-16T10:44:00.912Z,8.60
2019-02-16T10:47:01.201Z,8.60
2019-02-16T10:49:49.549Z,9.67
2019-02-16T10:52:29.896Z,12.17
2019-02-16T10:55:12.470Z,9.87
2019-02-16T10:58:12.950Z,8.40
2019-02-16T11:00:55.072Z,7.57
2019-02-16T11:03:43.382Z,8.10
2019-02-16T11:06:31.430Z,9.27
2019-02-16T11:09:14.518Z,8.47
2019-02-16T11:11:59.402Z,8.70
2019-02-16T11:14:46.553Z,9.50
2019-02-16T11:17:50.042Z,9.80
2019-02-16T11:20:27.804Z,8.17
2019-02-16T11:23:24.994Z,19.07
2019-02-16T11:26:28.681Z,9.47
2019-02-16T11:29:20.192Z,9.00
2019-02-16T11:32:02.255Z,12.10
2019-02-16T11:34:53.367Z,9.10
2019-02-16T11:37:44.653Z,8.33
2019-02-16T11:40:31.836Z,8.37
2019-02-16T11:43:18.376Z,7.57
2019-02-16T11:46:00.299Z,9.30
2019-02-16T11:49:06.708Z,8.10
2019-02-16T11:52:14.575Z,9.23
2019-02-16T11:55:11.512Z,8.30
2019-02-16T11:58:08.889Z,7.23
2019-02-16T12:01:02.193Z,6.60
2019-02-16T12:03:47.566Z,7.77
2019-02-16T12:06:28.040Z,7.47
2019-02-16T12:09:19.845Z,8.63
2019-02-16T12:12:07.202Z,8.43
2019-02-16T12:15:04.805Z,8.40
2019-02-16T12:17:59.313Z,7.67
2019-02-16T12:20:46.527Z,7.37
2019-02-16T12:23:25.574Z,7.27
2019-02-16T12:26:05.854Z,8.03
2019-02-16T12:29:06.210Z,8.97
2019-02-16T12:32:00.575Z,9.00
2019-02-16T12:34:41.424Z,8.77
2019-02-16T12:37:20.367Z,7.70
2019-02-16T12:40:02.427Z,7.73
2019-02-16T12:42:42.066Z,8.53
2019-02-16T12:45:18.477Z,8.87
2019-02-16T12:47:59.863Z,8.87
2019-02-16T12:50:38.764Z,8.93
2019-02-16T12:53:22.869Z,7.27
2019-02-16T12:56:09.763Z,8.20
2019-02-16T12:58:49.143Z,8.03
2019-02-16T13:01:36.504Z,7.17
2019-02-16T13:04:30.760Z,7.00
2019-02-16T13:07:07.507Z,7.17
2019-02-16T13:09:42.703Z,7.00
2019-02-16T13:12:35.267Z,7.03
2019-02-16T13:15:33.343Z,7.10
2019-02-16T13:18:31.253Z,6.90
2019-02-16T13:21:16.230Z,6.20
2019-02-16T13:24:13.839Z,6.43
2019-02-16T13:27:08.399Z,6.37
2019-02-16T13:29:58.018Z,5.90
2019-02-16T13:32:45.806Z,6.13
2019-02-16T13:35:32.957Z,6.10
2019-02-16T13:38:24.630Z,6.00
2019-02-16T13:41:15.260Z,5.47
2019-02-16T13:43:49.859Z,5.50
2019-02-16T13:46:33.741Z,6.00
2019-02-16T13:49:16.310Z,6.67
2019-02-16T13:52:16.791Z,5.20
2019-02-16T13:55:00.438Z,5.30
2019-02-16T13:57:55.673Z,4.80
2019-02-16T14:00:29.649Z,4.60
2019-02-16T14:03:16.778Z,5.77
2019-02-16T14:05:54.696Z,5.20
2019-02-16T14:08:45.954Z,5.20
2019-02-16T14:11:30.026Z,5.27
2019-02-16T14:14:24.580Z,4.80
2019-02-16T14:17:22.011Z,5.30
2019-02-16T14:19:51.359Z,6.23
2019-02-16T14:22:20.736Z,6.20
2019-02-16T14:24:54.026Z,5.37
2019-02-16T14:27:24.667Z,5.17
2019-02-16T14:29:54.383Z,4.50
2019-02-16T14:32:23.749Z,5.20
2019-02-16T14:34:53.083Z,4.90
2019-02-16T14:37:54.354Z,5.63
2019-02-16T14:40:26.670Z,5.87
2019-02-16T14:42:56.127Z,5.30
2019-02-16T14:45:26.151Z,5.90
2019-02-16T14:47:55.492Z,6.57
2019-02-16T14:50:24.977Z,5.97
2019-02-16T14:52:54.347Z,4.87
2019-02-16T14:55:23.750Z,4.77
2019-02-16T14:57:53.158Z,5.10
2019-02-16T15:00:22.532Z,5.17
2019-02-16T15:02:52.090Z,5.70
2019-02-16T15:05:21.459Z,4.57
2019-02-16T15:07:50.857Z,4.50
2019-02-16T15:10:20.224Z,4.70
2019-02-16T15:12:49.585Z,4.60
2019-02-16T15:15:18.978Z,4.40
2019-02-16T15:17:48.294Z,4.37
2019-02-16T15:20:17.717Z,5.73
2019-02-16T15:22:47.905Z,5.03
2019-02-16T15:25:17.278Z,6.40
2019-02-16T15:27:46.682Z,5.80
2019-02-16T15:30:17.080Z,6.63
2019-02-16T15:32:46.535Z,6.33
2019-02-16T15:35:16.961Z,6.07
2019-02-16T15:37:46.319Z,11.60
2019-02-16T15:40:17.393Z,7.57
2019-02-16T15:42:47.442Z,7.27
2019-02-16T15:45:17.534Z,6.87
2019-02-16T15:47:46.747Z,7.57
2019-02-16T15:50:16.255Z,7.50
2019-02-16T15:52:45.752Z,8.07
2019-02-16T15:55:15.125Z,8.77
2019-02-16T15:57:46.808Z,9.77
2019-02-16T16:00:20.302Z,12.40
2019-02-16T16:02:50.864Z,11.07
2019-02-16T16:05:22.120Z,9.37
2019-02-16T16:08:16.027Z,9.83
2019-02-16T16:10:54.547Z,9.63
2019-02-16T16:13:54.947Z,10.63
2019-02-16T16:16:43.287Z,10.93
2019-02-16T16:19:34.882Z,10.50
2019-02-16T16:22:22.293Z,10.53
2019-02-16T16:25:04.139Z,12.13
2019-02-16T16:27:43.412Z,13.50
2019-02-16T16:30:43.656Z,18.20
2019-02-16T16:33:30.798Z,22.53
2019-02-16T16:36:23.405Z,20.27
2019-02-16T16:39:11.691Z,19.77
2019-02-16T16:42:02.835Z,25.27
2019-02-16T16:44:41.997Z,24.43
2019-02-16T16:47:36.185Z,25.23
2019-02-16T16:50:25.104Z,23.97
2019-02-16T16:53:14.294Z,20.77
2019-02-16T16:55:52.066Z,20.30
2019-02-16T16:58:44.148Z,16.60
2019-02-16T17:01:41.379Z,14.20
2019-02-16T17:04:29.704Z,12.87
2019-02-16T17:07:33.392Z,14.70
2019-02-16T17:10:29.082Z,16.40
2019-02-16T17:13:15.556Z,17.40
2019-02-16T17:16:03.879Z,18.27
2019-02-16T17:18:51.006Z,18.93
2019-02-16T17:21:39.280Z,19.07
2019-02-16T17:24:26.293Z,18.70
2019-02-16T17:27:17.818Z,19.97
2019-02-16T17:30:05.312Z,27.73
2019-02-16T17:32:52.767Z,28.93
2019-02-16T17:35:47.493Z,30.03
2019-02-16T17:38:24.092Z,29.33
2019-02-16T17:41:04.403Z,27.83
2019-02-16T17:44:10.920Z,28.70
2019-02-16T17:47:07.557Z,28.00
2019-02-16T17:49:46.595Z,30.33
2019-02-16T17:52:26.329Z,32.07
2019-02-16T17:55:17.752Z,30.50
2019-02-16T17:58:12.140Z,24.20
2019-02-16T18:00:59.054Z,24.07
2019-02-16T18:04:02.725Z,24.43
2019-02-16T18:06:57.137Z,26.60
2019-02-16T18:09:38.863Z,27.03
2019-02-16T18:12:26.933Z,26.13
2019-02-16T18:15:15.220Z,24.23
2019-02-16T18:17:55.806Z,24.13
2019-02-16T18:20:41.595Z,26.60
2019-02-16T18:23:19.287Z,26.30
2019-02-16T18:26:03.136Z,26.43
2019-02-16T18:29:00.599Z,26.60
2019-02-16T18:31:42.389Z,26.47
2019-02-16T18:34:29.516Z,24.40
2019-02-16T18:37:13.238Z,23.57
2019-02-16T18:40:02.471Z,25.07
2019-02-16T18:42:47.997Z,25.40
2019-02-16T18:45:34.712Z,23.00
2019-02-16T18:48:22.091Z,25.37
2019-02-16T18:51:13.267Z,22.77
2019-02-16T18:54:04.561Z,21.73
2019-02-16T18:57:06.046Z,21.43
2019-02-16T18:59:44.849Z,20.23
2019-02-16T19:02:36.445Z,21.20
2019-02-16T19:05:24.218Z,20.97
2019-02-16T19:08:15.642Z,22.03
2019-02-16T19:11:03.942Z,23.50
2019-02-16T19:14:01.348Z,24.63
2019-02-16T19:16:39.705Z,23.30
2019-02-16T19:19:26.204Z,23.77
2019-02-16T19:22:07.314Z,24.10
2019-02-16T19:24:57.915Z,23.10
2019-02-16T19:28:01.408Z,22.37
2019-02-16T19:30:41.703Z,23.90
2019-02-16T19:33:29.998Z,23.00
2019-02-16T19:36:20.515Z,23.50
2019-02-16T19:39:11.928Z,21.97
2019-02-16T19:42:00.241Z,23.97
2019-02-16T19:44:37.888Z,24.17
2019-02-16T19:47:26.185Z,21.87
2019-02-16T19:50:03.832Z,23.23
2019-02-16T19:52:40.059Z,21.53
2019-02-16T19:55:28.398Z,21.13
2019-02-16T19:58:11.640Z,21.47
2019-02-16T20:00:47.390Z,20.80
2019-02-16T20:03:27.364Z,21.47
2019-02-16T20:06:15.651Z,22.53
2019-02-16T20:09:15.516Z,21.00
2019-02-16T20:12:07.489Z,20.27
2019-02-16T20:14:45.739Z,21.10
2019-02-16T20:17:38.506Z,22.37
2019-02-16T20:20:30.927Z,21.63
2019-02-16T20:23:19.208Z,20.50
2019-02-16T20:25:59.512Z,21.13
2019-02-16T20:28:41.410Z,20.97
2019-02-16T20:31:16.668Z,18.40
2019-02-16T20:33:55.185Z,18.03
2019-02-16T20:36:46.544Z,17.23
2019-02-16T20:39:44.627Z,17.53
2019-02-16T20:42:42.000Z,15.50
2019-02-16T20:45:33.422Z,15.87
2019-02-16T20:48:31.949Z,15.83
2019-02-16T20:51:20.242Z,16.83
2019-02-16T20:54:02.981Z,15.30
2019-02-16T20:56:49.047Z,15.13
2019-02-16T20:59:40.079Z,15.23
2019-02-16T21:02:37.455Z,15.13
2019-02-16T21:05:41.006Z,15.27
2019-02-16T21:08:26.349Z,16.17
2019-02-16T21:11:23.449Z,16.23
2019-02-16T21:13:58.569Z,16.70
2019-02-16T21:16:46.108Z,15.53
2019-02-16T21:19:37.939Z,17.60
2019-02-16T21:22:38.439Z,16.10
2019-02-16T21:25:16.788Z,15.70
2019-02-16T21:27:58.134Z,16.53
2019-02-16T21:30:51.324Z,16.70
2019-02-16T21:33:38.289Z,16.83
2019-02-16T21:36:22.757Z,17.07
2019-02-16T21:39:10.417Z,17.30
2019-02-16T21:41:54.918Z,16.27
2019-02-16T21:44:44.276Z,16.87
2019-02-16T21:47:31.467Z,17.43
2019-02-16T21:50:17.897Z,18.03
2019-02-16T21:53:06.314Z,16.63
2019-02-16T21:55:57.436Z,18.33
2019-02-16T21:58:44.685Z,17.07
2019-02-16T22:01:22.316Z,16.33
2019-02-16T22:04:01.535Z,15.43
2019-02-16T22:06:59.198Z,17.33
2019-02-16T22:09:57.618Z,17.23
2019-02-16T22:12:52.085Z,18.37
2019-02-16T22:15:22.319Z,18.97
2019-02-16T22:17:52.643Z,19.73
2019-02-16T22:20:22.802Z,19.80
2019-02-16T22:22:52.602Z,18.90
2019-02-16T22:25:22.437Z,20.07
2019-02-16T22:27:52.274Z,19.90
2019-02-16T22:30:21.950Z,18.93
2019-02-16T22:32:51.754Z,20.93
2019-02-16T22:35:21.798Z,20.60
2019-02-16T22:37:51.143Z,20.17
2019-02-16T22:40:20.807Z,20.37
2019-02-16T22:42:50.147Z,21.00
2019-02-16T22:45:19.522Z,22.97
2019-02-16T22:47:48.896Z,22.00
2019-02-16T22:50:18.402Z,23.30
2019-02-16T22:52:48.950Z,23.60
2019-02-16T22:55:19.050Z,22.23
2019-02-16T22:57:48.404Z,22.50
2019-02-16T23:00:37.139Z,22.83
2019-02-16T23:03:08.138Z,23.87
2019-02-16T23:05:37.643Z,24.10
2019-02-16T23:08:07.448Z,24.47
2019-02-16T23:10:37.586Z,24.53
2019-02-16T23:13:08.940Z,23.63
2019-02-16T23:15:38.366Z,28.73
2019-02-16T23:18:08.104Z,33.70
2019-02-16T23:20:37.743Z,33.53
2019-02-16T23:23:07.963Z,33.57
2019-02-16T23:25:37.444Z,31.93
2019-02-16T23:28:07.731Z,30.03
2019-02-16T23:30:38.838Z,28.17
2019-02-16T23:33:09.063Z,27.10
2019-02-16T23:35:39.474Z,26.80
2019-02-16T23:38:08.995Z,25.73
2019-02-16T23:40:39.741Z,25.73
2019-02-16T23:43:09.505Z,25.43
2019-02-16T23:45:39.201Z,24.47
2019-02-16T23:48:10.419Z,24.97
2019-02-16T23:50:39.786Z,26.00
2019-02-16T23:53:09.555Z,26.43
2019-02-16T23:55:39.310Z,26.47
2019-02-16T23:58:08.990Z,29.33
